Airfield :
LOGIN :

Register | Disclaimer

   EN    FR    IT 

 










Legend :    VFR   Marginal VFR   IFR   Intensive IFR   Very Intensive IFR
Visi :
Ceiling :
>= 8 km
>= 3000ft
5 to 8 km
1000 to 3000 ft
1500m to 5 km
500 to 1000 ft
800 to 1500m
200 to 500 ft
< 800m
< 200 ft
Symbols :   Thunderstorms  Fog  Heavy snow  Heavy precipitations  Wind > 20 kt
SIGMETs :     Misc.  Thunderstorms  Icing  Turbulence  Mountain Waves  Volcanic Ashes






- Airport Elevation : 220 ft
- IATA code : CWL


EGFF - Cardiff Rhoose

CURRENT METAR :
  • 271420Z AUTO 27018KT 9999 -RA BKN020 BKN029 BKN041 12/10 Q0994

EXPIRED METARs :
  • 271350Z AUTO 26019KT 9999 SCT018 BKN024 BKN034 14/12 Q0993
  • 271320Z AUTO 26018KT 9999 SCT017 14/12 Q0993
  • 271250Z AUTO 27017KT 9999 SCT015 BKN039 13/13 Q0993 RESHRA
  • 271220Z AUTO 26015KT 9999 FEW013 SCT027 BKN031 12/12 Q0993
  • 271150Z AUTO 27020G30KT 9999 BKN005 BKN010 BKN016 12/12 Q0993 RERA

TAF TAF EGFF
Valid from the 27 at 12:00 until the 28 at 12:00 UTC


271105Z 2712/2812 26018G28KT 9999 SCT025
TEMPO 2712/2812 24012KT 6000 SHRA
PROB40
TEMPO 2723/2812 3000 +SHRA SHGS BKN013 BKN020CB
ATIS : +44 1446 729 319



MET'MAP, your aeronautical weather chart ! - Copyright ORBIFLY December 2007 - Disclaimer

ORBIFLY MET'MAP TEAM :

Programming & Development : Alexandra Zaïnal
Concept & original design : Baudouin d'Aumeries
Assistance for programming : Marc-Olivier Méhu
Technical & hardware support : Manuel Goepfert

Contact : metmap@orbifly.com




SOURCES & CREDITS :

   NOAA